createdAt,value
2018-11-20T11:10:50.121Z,244
2018-11-20T11:11:22.203Z,244
2018-11-20T11:11:54.333Z,252
2018-11-20T11:12:26.483Z,268
2018-11-20T11:12:58.560Z,276
2018-11-20T11:13:30.745Z,272
2018-11-20T11:14:02.866Z,276
2018-11-20T11:14:35.004Z,288
2018-11-20T11:15:07.015Z,300
2018-11-20T11:15:39.085Z,316
2018-11-20T11:16:11.132Z,320
2018-11-20T11:16:43.159Z,336
2018-11-20T11:17:15.228Z,352
2018-11-20T11:17:47.282Z,372
2018-11-20T11:18:19.454Z,400
2018-11-20T11:18:51.569Z,408
2018-11-20T11:19:23.642Z,404
2018-11-20T11:19:55.704Z,424
2018-11-20T11:20:27.884Z,436
2018-11-20T11:21:00.099Z,456
2018-11-20T11:21:31.990Z,476
2018-11-20T11:22:04.057Z,484
2018-11-20T11:22:36.161Z,448
2018-11-20T11:23:08.212Z,440
2018-11-20T11:23:40.294Z,460
2018-11-20T11:24:12.351Z,500
2018-11-20T11:24:44.388Z,512
2018-11-20T11:25:16.444Z,576
2018-11-20T11:25:48.496Z,640
2018-11-20T11:26:20.513Z,628
2018-11-20T11:26:52.571Z,612
2018-11-20T11:27:24.614Z,580
2018-11-20T11:27:56.637Z,584
2018-11-20T11:28:28.651Z,576
2018-11-20T11:29:00.701Z,564
2018-11-20T11:29:32.757Z,556
2018-11-20T11:30:04.808Z,572
2018-11-20T11:30:36.932Z,548
2018-11-20T11:31:08.961Z,560
2018-11-20T11:31:40.998Z,596
2018-11-20T11:32:13.107Z,588
2018-11-20T11:32:45.145Z,612
2018-11-20T11:33:17.204Z,608
2018-11-20T11:33:49.250Z,600
2018-11-20T11:34:21.247Z,584
2018-11-20T11:34:53.319Z,584
2018-11-20T11:35:25.393Z,564
2018-11-20T11:35:57.458Z,548
2018-11-20T11:36:29.524Z,552
2018-11-20T11:37:01.621Z,544
2018-11-20T11:37:33.710Z,520
2018-11-20T11:38:05.855Z,488
2018-11-20T11:38:37.916Z,496
2018-11-20T11:39:09.998Z,504
2018-11-20T11:39:42.100Z,476
2018-11-20T11:40:14.100Z,456
2018-11-20T11:40:46.177Z,420
2018-11-20T11:41:18.239Z,404
2018-11-20T11:41:50.329Z,400
2018-11-20T11:42:22.301Z,412
2018-11-20T11:42:54.321Z,404
2018-11-20T11:43:29.091Z,416
2018-11-20T11:44:01.148Z,444
2018-11-20T11:44:33.200Z,468
2018-11-20T11:45:05.277Z,464
2018-11-20T11:45:37.360Z,492
2018-11-20T11:46:09.411Z,528
2018-11-20T11:46:41.446Z,536
2018-11-20T11:47:13.466Z,524
2018-11-20T11:47:45.537Z,548
2018-11-20T11:48:17.583Z,556
2018-11-20T11:48:49.639Z,544
2018-11-20T11:49:21.712Z,508
2018-11-20T11:49:53.766Z,480
2018-11-20T11:50:25.800Z,480
2018-11-20T11:50:57.838Z,464
2018-11-20T11:51:29.889Z,460
2018-11-20T11:52:02.288Z,484
2018-11-20T11:52:34.646Z,496
2018-11-20T11:53:06.636Z,488
2018-11-20T11:53:38.728Z,472
2018-11-20T11:54:10.781Z,468
2018-11-20T11:54:42.875Z,456
2018-11-20T11:55:14.925Z,420
2018-11-20T11:55:46.996Z,392
2018-11-20T11:56:19.107Z,376
2018-11-20T11:56:51.194Z,376
2018-11-20T11:57:23.276Z,376
2018-11-20T11:57:55.309Z,412
2018-11-20T11:58:27.386Z,436
2018-11-20T11:58:59.416Z,464
2018-11-20T11:59:31.459Z,476
2018-11-20T12:00:03.518Z,468
2018-11-20T12:00:35.576Z,472
2018-11-20T12:01:07.654Z,488
2018-11-20T12:03:49.762Z,476
2018-11-20T12:04:21.809Z,480
2018-11-20T12:04:53.877Z,492
2018-11-20T12:05:25.904Z,488
2018-11-20T12:05:57.967Z,512
2018-11-20T12:06:30.179Z,504
2018-11-20T12:07:03.322Z,496
2018-11-20T12:07:35.380Z,516
2018-11-20T12:08:07.519Z,504
2018-11-20T12:08:39.579Z,492
2018-11-20T12:09:11.645Z,516
2018-11-20T12:09:43.696Z,500
2018-11-20T12:10:15.765Z,480
2018-11-20T12:10:47.855Z,496
2018-11-20T12:11:19.899Z,504
2018-11-20T12:11:51.996Z,480
2018-11-20T12:12:24.047Z,480
2018-11-20T12:12:56.145Z,484
2018-11-20T12:13:28.219Z,464
2018-11-20T12:14:00.284Z,448
2018-11-20T12:14:32.356Z,456
2018-11-20T12:15:04.400Z,468
2018-11-20T12:15:36.458Z,484
2018-11-20T12:16:08.547Z,480
2018-11-20T12:16:40.628Z,476
2018-11-20T12:17:12.729Z,468
2018-11-20T12:17:44.763Z,460
2018-11-20T12:18:16.797Z,468
2018-11-20T12:18:48.857Z,480
2018-11-20T12:19:20.927Z,496
2018-11-20T12:19:53.004Z,480
2018-11-20T12:20:25.087Z,472
2018-11-20T12:20:57.152Z,448
2018-11-20T12:21:29.171Z,424
2018-11-20T12:22:01.269Z,408
2018-11-20T12:22:33.331Z,408
2018-11-20T12:23:05.372Z,424
2018-11-20T12:23:37.460Z,412
2018-11-20T12:24:09.543Z,380
2018-11-20T12:24:41.588Z,372
2018-11-20T12:25:13.688Z,360
2018-11-20T12:25:45.747Z,340
2018-11-20T12:26:17.834Z,344
2018-11-20T12:26:49.899Z,348
2018-11-20T12:27:22.303Z,336
2018-11-20T12:27:54.428Z,340
2018-11-20T12:28:26.498Z,340
2018-11-20T12:28:58.584Z,356
2018-11-20T12:29:37.301Z,336
2018-11-20T12:30:10.905Z,340
2018-11-20T12:30:42.967Z,348
2018-11-20T12:31:15.023Z,364
2018-11-20T12:31:50.643Z,368
2018-11-20T12:32:19.142Z,360
2018-11-20T12:32:52.270Z,344
2018-11-20T12:33:26.969Z,344
2018-11-20T12:34:00.910Z,340
2018-11-20T12:34:33.007Z,336
2018-11-20T12:35:05.107Z,356
2018-11-20T12:35:39.691Z,364
2018-11-20T12:36:15.305Z,356
2018-11-20T12:36:49.317Z,376
2018-11-20T12:37:24.840Z,380
2018-11-20T12:39:16.242Z,356
2018-11-20T12:39:48.333Z,352
2018-11-20T12:40:20.375Z,344
2018-11-20T12:40:52.457Z,352
2018-11-20T12:41:26.631Z,364
2018-11-20T12:42:00.042Z,360
2018-11-20T12:42:32.086Z,368
2018-11-20T12:43:04.143Z,364
2018-11-20T12:43:38.632Z,344
2018-11-20T12:44:10.685Z,348
2018-11-20T12:44:42.764Z,356
2018-11-20T12:45:15.566Z,368
2018-11-20T12:45:46.928Z,372
2018-11-20T12:46:18.953Z,384
2018-11-20T12:46:51.047Z,388
2018-11-20T12:47:25.010Z,372
2018-11-20T12:47:57.047Z,384
2018-11-20T12:48:29.081Z,388
2018-11-20T12:49:01.155Z,400
2018-11-20T12:49:33.229Z,396
2018-11-20T12:50:05.254Z,388
2018-11-20T12:50:37.342Z,388
2018-11-20T12:51:09.389Z,376
2018-11-20T12:51:41.423Z,364
2018-11-20T12:52:13.467Z,352
2018-11-20T12:52:45.557Z,340
2018-11-20T12:53:21.250Z,332
2018-11-20T12:53:53.088Z,340
2018-11-20T12:54:25.159Z,340
2018-11-20T12:54:57.239Z,328
2018-11-20T12:55:29.679Z,316
2018-11-20T12:56:01.756Z,308
2018-11-20T12:56:33.991Z,308
2018-11-20T12:57:06.098Z,304
2018-11-20T12:57:38.131Z,304
2018-11-20T12:58:10.208Z,300
2018-11-20T12:58:42.283Z,300
2018-11-20T12:59:14.370Z,300
2018-11-20T12:59:46.429Z,296
2018-11-20T13:00:18.473Z,296
2018-11-20T13:00:50.606Z,304
2018-11-20T13:01:22.677Z,312
2018-11-20T13:01:56.297Z,316
2018-11-20T13:02:28.403Z,320
2018-11-20T13:03:00.516Z,320
2018-11-20T13:03:33.768Z,312
2018-11-20T13:04:05.814Z,312
2018-11-20T13:04:37.880Z,328
2018-11-20T13:05:09.945Z,332
2018-11-20T13:05:41.990Z,328
2018-11-20T13:06:14.025Z,324
2018-11-20T13:06:46.096Z,300
2018-11-20T13:07:18.135Z,292
2018-11-20T13:07:50.217Z,292
2018-11-20T13:08:22.246Z,280
2018-11-20T13:08:54.297Z,268
2018-11-20T13:09:26.391Z,260
2018-11-20T13:09:58.489Z,260
2018-11-20T13:10:32.524Z,252
2018-11-20T13:11:04.571Z,248
2018-11-20T13:11:36.587Z,244
2018-11-20T13:12:08.662Z,232
2018-11-20T13:12:40.772Z,240
2018-11-20T13:13:12.824Z,232
2018-11-20T13:13:44.891Z,228
2018-11-20T13:14:16.939Z,220
2018-11-20T13:14:49.929Z,204
2018-11-20T13:15:21.945Z,204
2018-11-20T13:15:54.014Z,204
2018-11-20T13:16:26.068Z,212
2018-11-20T13:16:58.120Z,204
2018-11-20T13:17:30.192Z,204
2018-11-20T13:18:03.544Z,204
2018-11-20T13:18:34.378Z,204
2018-11-20T13:19:06.432Z,204
2018-11-20T13:19:40.813Z,196
2018-11-20T13:20:12.962Z,192
2018-11-20T13:20:45.020Z,192
2018-11-20T13:21:17.049Z,196
2018-11-20T13:21:49.855Z,192
2018-11-20T13:22:21.233Z,188
2018-11-20T13:22:53.240Z,196
2018-11-20T13:23:29.338Z,204
2018-11-20T13:24:00.223Z,204
2018-11-20T13:24:32.254Z,204
2018-11-20T13:25:04.312Z,204
2018-11-20T13:25:36.384Z,204
2018-11-20T13:26:08.486Z,204
2018-11-20T13:26:40.502Z,196
2018-11-20T13:27:12.572Z,192
2018-11-20T13:27:44.614Z,196
2018-11-20T13:28:16.635Z,192
2018-11-20T13:28:48.686Z,200
2018-11-20T13:29:20.758Z,212
2018-11-20T13:29:52.822Z,212
2018-11-20T13:30:24.903Z,216
2018-11-20T13:30:56.949Z,224
2018-11-20T13:31:29.021Z,224
2018-11-20T13:32:01.118Z,224
2018-11-20T13:32:33.166Z,224
2018-11-20T13:33:05.200Z,212
2018-11-20T13:33:37.246Z,212
2018-11-20T13:34:09.287Z,192
2018-11-20T13:34:41.339Z,188
2018-11-20T13:35:13.389Z,196
2018-11-20T13:35:45.478Z,204
2018-11-20T13:36:17.675Z,208
2018-11-20T13:36:49.704Z,200
2018-11-20T13:37:21.803Z,208
2018-11-20T13:37:53.881Z,208
2018-11-20T13:38:25.932Z,200
2018-11-20T13:38:58.009Z,200
2018-11-20T13:39:30.070Z,188
2018-11-20T13:40:02.137Z,196
2018-11-20T13:40:34.169Z,192
2018-11-20T13:41:06.213Z,204
2018-11-20T13:41:39.848Z,200
2018-11-20T13:42:12.208Z,196
2018-11-20T13:42:44.283Z,196
2018-11-20T13:43:16.341Z,192
2018-11-20T13:43:48.388Z,188
2018-11-20T13:44:20.439Z,192
2018-11-20T13:44:52.483Z,188
2018-11-20T13:45:24.553Z,192
2018-11-20T13:45:56.590Z,188
2018-11-20T13:46:28.674Z,188
2018-11-20T13:47:00.735Z,188
2018-11-20T13:47:32.763Z,176
2018-11-20T13:48:04.811Z,164
2018-11-20T13:48:36.861Z,164
2018-11-20T13:49:08.945Z,164
2018-11-20T13:49:41.007Z,164
2018-11-20T13:50:13.059Z,164
2018-11-20T13:50:45.110Z,160
2018-11-20T13:51:17.182Z,152
2018-11-20T13:51:49.247Z,160
2018-11-20T13:52:21.290Z,168
2018-11-20T13:52:53.360Z,168
2018-11-20T13:53:25.392Z,168
2018-11-20T13:53:57.446Z,168
2018-11-20T13:54:29.460Z,172
2018-11-20T13:55:01.520Z,172
2018-11-20T13:55:33.856Z,184
2018-11-20T13:56:05.616Z,180
2018-11-20T13:56:37.657Z,184
2018-11-20T13:57:09.739Z,188
2018-11-20T13:57:41.817Z,188
2018-11-20T13:58:13.909Z,188
2018-11-20T13:58:46.029Z,188
2018-11-20T13:59:18.093Z,176
2018-11-20T13:59:50.164Z,164
2018-11-20T14:00:22.217Z,184
2018-11-20T14:00:54.281Z,176
2018-11-20T14:01:26.363Z,160
2018-11-20T14:01:58.413Z,168
2018-11-20T14:02:30.505Z,168
2018-11-20T14:03:02.531Z,164
2018-11-20T14:03:34.585Z,156
2018-11-20T14:04:06.757Z,160
2018-11-20T14:04:38.768Z,156
2018-11-20T14:05:10.781Z,164
2018-11-20T14:05:42.832Z,160
2018-11-20T14:06:14.868Z,156
2018-11-20T14:06:46.929Z,148
2018-11-20T14:07:18.972Z,136
2018-11-20T14:07:51.107Z,132
2018-11-20T14:08:23.198Z,128
2018-11-20T14:08:55.256Z,124
2018-11-20T14:09:27.345Z,128
2018-11-20T14:09:59.443Z,132
2018-11-20T14:10:31.502Z,136
2018-11-20T14:11:03.574Z,136
2018-11-20T14:11:36.476Z,132
2018-11-20T14:12:07.693Z,132
2018-11-20T14:12:39.768Z,128
2018-11-20T14:13:11.842Z,128
2018-11-20T14:13:43.922Z,128
2018-11-20T14:14:15.977Z,120
2018-11-20T14:14:48.481Z,120
2018-11-20T14:15:20.539Z,124
2018-11-20T14:15:52.619Z,128
2018-11-20T14:16:24.689Z,132
2018-11-20T14:16:56.752Z,136
2018-11-20T14:17:28.841Z,140
2018-11-20T14:18:00.899Z,136
2018-11-20T14:18:32.977Z,136
2018-11-20T14:19:05.043Z,140
2018-11-20T14:19:37.079Z,136
2018-11-20T14:20:09.132Z,140
2018-11-20T14:20:41.185Z,148
2018-11-20T14:21:13.252Z,144
2018-11-20T14:21:45.304Z,144
2018-11-20T14:22:17.374Z,148
2018-11-20T14:22:49.442Z,144
2018-11-20T14:23:21.494Z,140
2018-11-20T14:23:53.528Z,132
2018-11-20T14:24:25.551Z,124
2018-11-20T14:24:57.606Z,124
2018-11-20T14:25:29.704Z,116
2018-11-20T14:26:01.764Z,116
2018-11-20T14:26:33.796Z,112
2018-11-20T14:27:05.881Z,112
2018-11-20T14:27:37.920Z,108
2018-11-20T14:28:14.109Z,112
2018-11-20T14:28:42.091Z,116
2018-11-20T14:29:14.163Z,120
2018-11-20T14:29:46.236Z,116
2018-11-20T14:30:18.285Z,116
2018-11-20T14:30:50.334Z,108
2018-11-20T14:31:22.394Z,112
2018-11-20T14:31:54.459Z,116
2018-11-20T14:32:26.513Z,112
2018-11-20T14:32:58.541Z,112
2018-11-20T14:33:30.601Z,112
2018-11-20T14:34:02.656Z,108
2018-11-20T14:34:34.706Z,104
2018-11-20T14:35:06.763Z,100
2018-11-20T14:35:38.808Z,100
2018-11-20T14:36:10.843Z,96
2018-11-20T14:36:42.916Z,96
2018-11-20T14:37:14.938Z,96
2018-11-20T14:37:46.979Z,92
2018-11-20T14:38:19.058Z,92
2018-11-20T14:38:56.435Z,88
2018-11-20T14:39:23.162Z,92
2018-11-20T14:39:55.208Z,88
2018-11-20T14:40:27.428Z,84
2018-11-20T14:41:04.326Z,88
2018-11-20T14:41:36.106Z,88
2018-11-20T14:42:08.170Z,92
2018-11-20T14:42:40.207Z,84
2018-11-20T14:43:12.276Z,80
2018-11-20T14:43:44.339Z,80
2018-11-20T14:44:16.387Z,80
2018-11-20T14:44:48.432Z,80
2018-11-20T14:45:20.496Z,80
2018-11-20T14:45:52.555Z,84
2018-11-20T14:46:24.642Z,84
2018-11-20T14:46:56.668Z,80
2018-11-20T14:47:28.770Z,84
2018-11-20T14:48:00.869Z,84
2018-11-20T14:48:32.946Z,80
2018-11-20T14:49:04.968Z,80
2018-11-20T14:49:40.874Z,80
2018-11-20T14:50:09.063Z,80
2018-11-20T14:50:41.119Z,76
2018-11-20T14:51:13.246Z,72
2018-11-20T14:51:45.313Z,72
2018-11-20T14:52:18.533Z,72
2018-11-20T14:52:54.975Z,68
2018-11-20T14:53:27.054Z,64
2018-11-20T14:53:59.113Z,68
2018-11-20T14:54:31.189Z,68
2018-11-20T14:55:03.274Z,64
2018-11-20T14:55:35.323Z,60
2018-11-20T14:56:07.373Z,60
2018-11-20T14:56:39.451Z,56
2018-11-20T14:57:11.504Z,52
2018-11-20T14:57:43.661Z,52
2018-11-20T14:58:15.700Z,52
2018-11-20T14:58:47.768Z,48
2018-11-20T14:59:19.834Z,44
2018-11-20T14:59:51.879Z,36
2018-11-20T15:00:23.964Z,36
2018-11-20T15:00:56.023Z,36
2018-11-20T15:01:28.188Z,28
2018-11-20T15:02:00.239Z,36
2018-11-20T15:02:32.295Z,40
2018-11-20T15:03:04.605Z,36
2018-11-20T15:03:36.673Z,40
2018-11-20T15:04:08.779Z,44
2018-11-20T15:04:40.829Z,40
2018-11-20T15:05:12.905Z,36
2018-11-20T15:05:44.929Z,40
2018-11-20T15:06:16.993Z,40
2018-11-20T15:06:49.056Z,36
2018-11-20T15:07:21.713Z,36
2018-11-20T15:08:00.280Z,40
2018-11-20T15:08:32.348Z,36
2018-11-20T15:09:04.404Z,36
2018-11-20T15:09:36.438Z,36
2018-11-20T15:10:08.527Z,40
2018-11-20T15:10:40.575Z,40
2018-11-20T15:11:12.661Z,36
2018-11-20T15:11:44.734Z,32
2018-11-20T15:12:16.778Z,32
2018-11-20T15:12:48.788Z,32
2018-11-20T15:13:20.877Z,28
2018-11-20T15:13:52.942Z,32
2018-11-20T15:14:24.965Z,32
2018-11-20T15:14:57.064Z,32
2018-11-20T15:15:29.147Z,28
2018-11-20T15:16:01.228Z,24
2018-11-20T15:16:33.290Z,28
2018-11-20T15:17:05.378Z,28
2018-11-20T15:17:37.456Z,24
2018-11-20T15:18:09.520Z,20
2018-11-20T15:18:46.270Z,20
2018-11-20T15:19:18.299Z,20
2018-11-20T15:19:50.408Z,20
2018-11-20T15:20:22.418Z,20
2018-11-20T15:20:54.477Z,16
2018-11-20T15:21:26.515Z,16
2018-11-20T15:21:58.572Z,16
2018-11-20T15:22:30.626Z,12
2018-11-20T15:23:02.717Z,12
2018-11-20T15:23:34.796Z,16
2018-11-20T15:24:06.873Z,12
2018-11-20T15:24:38.929Z,12
2018-11-20T15:25:10.972Z,12
2018-11-20T15:25:43.034Z,12
2018-11-20T15:26:15.100Z,12
2018-11-20T15:26:47.184Z,8
2018-11-20T15:27:19.265Z,8
2018-11-20T15:27:51.282Z,8
2018-11-20T15:28:23.354Z,8
2018-11-20T15:28:55.439Z,8
2018-11-20T15:29:27.471Z,8
2018-11-20T15:29:59.557Z,8
2018-11-20T15:30:31.613Z,8
2018-11-20T15:31:03.705Z,4
2018-11-20T15:31:35.809Z,4
2018-11-20T15:32:07.853Z,4
2018-11-20T15:32:39.918Z,4
2018-11-20T15:33:12.009Z,4
2018-11-20T15:33:44.095Z,4
2018-11-20T15:34:16.117Z,8
2018-11-20T15:34:48.253Z,8
2018-11-20T15:35:21.290Z,8
2018-11-20T15:35:52.944Z,4
2018-11-20T15:36:25.095Z,4
2018-11-20T15:36:57.276Z,4
2018-11-20T15:37:29.406Z,4
2018-11-20T15:38:01.512Z,4
2018-11-20T15:38:33.594Z,4
2018-11-20T15:39:05.660Z,4
2018-11-20T15:39:37.736Z,0
2018-11-20T15:40:09.782Z,0
2018-11-20T15:40:41.881Z,4
2018-11-20T15:41:13.941Z,4
2018-11-20T15:41:46.149Z,4
2018-11-20T15:42:18.299Z,4
2018-11-20T15:42:50.370Z,4
2018-11-20T15:43:22.425Z,4
2018-11-20T15:43:54.539Z,0
2018-11-20T15:44:26.609Z,0
2018-11-20T15:44:58.660Z,0
2018-11-20T15:45:30.734Z,0
2018-11-20T15:46:02.805Z,0
2018-11-20T15:46:34.866Z,0
2018-11-20T15:47:06.933Z,0
2018-11-20T15:47:39.016Z,0
2018-11-20T15:48:11.101Z,0
2018-11-20T15:48:43.153Z,0
2018-11-20T15:49:15.259Z,0
2018-11-20T15:49:47.325Z,0
2018-11-20T15:50:19.384Z,0
2018-11-20T15:50:51.444Z,0
2018-11-20T15:51:23.513Z,0
2018-11-20T15:51:55.578Z,0
2018-11-20T15:52:27.664Z,0
2018-11-20T15:52:59.695Z,0
2018-11-20T15:53:31.738Z,0
2018-11-20T15:54:03.794Z,0
2018-11-20T15:54:35.879Z,0
2018-11-20T15:55:07.971Z,0
2018-11-20T15:55:40.037Z,0
2018-11-20T15:56:12.111Z,0
2018-11-20T15:56:44.207Z,0
2018-11-20T15:57:16.260Z,0
2018-11-20T15:57:48.308Z,0
2018-11-20T15:58:20.354Z,0
2018-11-20T15:58:52.398Z,0
2018-11-20T15:59:24.469Z,0
2018-11-20T15:59:56.550Z,0
2018-11-20T16:00:28.593Z,0
2018-11-20T16:01:00.623Z,0
2018-11-20T16:01:32.689Z,0
2018-11-20T16:02:04.744Z,0
2018-11-20T16:02:36.816Z,0
2018-11-20T16:03:08.903Z,0
2018-11-20T16:03:40.975Z,0
2018-11-20T16:04:13.041Z,0
2018-11-20T16:04:46.045Z,0
2018-11-20T16:05:18.117Z,0
2018-11-20T16:05:50.217Z,0
2018-11-20T16:06:22.272Z,0
2018-11-20T16:06:54.333Z,0
2018-11-20T16:07:26.438Z,0
2018-11-20T16:07:58.562Z,0
2018-11-20T16:08:30.608Z,0
2018-11-20T16:09:02.704Z,0
2018-11-20T16:09:34.770Z,0
2018-11-20T16:10:06.872Z,0
2018-11-20T16:10:38.978Z,0
2018-11-20T16:11:11.012Z,0
2018-11-20T16:11:43.084Z,0
2018-11-20T16:12:15.148Z,0
2018-11-20T16:12:47.263Z,0
2018-11-20T16:13:19.324Z,0
2018-11-20T16:13:51.369Z,0
2018-11-20T16:14:23.421Z,0
2018-11-20T16:14:55.504Z,0
2018-11-20T16:15:27.576Z,0
2018-11-20T16:15:59.637Z,0
2018-11-20T16:16:31.644Z,0
2018-11-20T16:17:16.384Z,0
2018-11-20T16:17:35.826Z,0
2018-11-20T16:18:07.903Z,0
2018-11-20T16:18:39.954Z,0
2018-11-20T16:19:12.024Z,0
2018-11-20T16:19:44.098Z,0
2018-11-20T16:20:16.160Z,0
2018-11-20T16:20:48.555Z,0
2018-11-20T16:21:20.264Z,0
2018-11-20T16:21:52.334Z,0
2018-11-20T16:22:24.415Z,0
2018-11-20T16:22:56.501Z,0
2018-11-20T16:23:28.563Z,0
2018-11-20T16:24:00.663Z,0
2018-11-20T16:24:32.738Z,0
2018-11-20T16:25:04.829Z,0
2018-11-20T16:25:36.901Z,0
2018-11-20T16:26:08.964Z,0
2018-11-20T16:26:41.041Z,0
2018-11-20T16:27:13.123Z,0
2018-11-20T16:27:45.191Z,0
2018-11-20T16:28:17.264Z,0
2018-11-20T16:28:49.341Z,0
2018-11-20T16:29:21.372Z,0
2018-11-20T16:29:53.459Z,0
2018-11-20T16:30:25.531Z,0
2018-11-20T16:30:57.599Z,0
2018-11-20T16:31:29.660Z,0
2018-11-20T16:32:01.715Z,0
2018-11-20T16:32:33.754Z,0
2018-11-20T16:33:05.780Z,0
2018-11-20T16:33:37.904Z,0
2018-11-20T16:34:09.988Z,0
2018-11-20T16:34:42.075Z,0
2018-11-20T16:35:14.163Z,0
2018-11-20T16:35:46.272Z,0
2018-11-20T16:36:18.641Z,0
2018-11-20T16:36:50.417Z,0
2018-11-20T16:37:22.497Z,0
2018-11-20T16:37:54.575Z,0
2018-11-20T16:38:26.634Z,0
2018-11-20T16:38:58.707Z,0
2018-11-20T16:39:30.746Z,0
2018-11-20T16:40:02.823Z,0
2018-11-20T16:40:34.880Z,0
2018-11-20T16:41:06.922Z,0
2018-11-20T16:41:43.139Z,0
2018-11-20T16:42:15.194Z,0
2018-11-20T16:42:47.291Z,0
2018-11-20T16:43:19.349Z,0
2018-11-20T16:43:51.444Z,0
2018-11-20T16:44:23.475Z,0
2018-11-20T16:44:55.512Z,0
2018-11-20T16:45:27.568Z,0
2018-11-20T16:45:59.647Z,0
2018-11-20T16:46:31.749Z,0
2018-11-20T16:47:03.851Z,0
2018-11-20T16:47:35.929Z,0
2018-11-20T16:48:07.991Z,0
2018-11-20T16:48:40.092Z,0
2018-11-20T16:49:12.178Z,0
2018-11-20T16:49:44.235Z,0
2018-11-20T16:50:16.337Z,0
2018-11-20T16:50:48.405Z,0
2018-11-20T16:51:20.456Z,0
2018-11-20T16:51:52.496Z,0
2018-11-20T16:52:24.547Z,0
2018-11-20T16:52:56.626Z,0
2018-11-20T16:53:28.729Z,0
2018-11-20T16:54:00.810Z,0
2018-11-20T16:54:32.905Z,0
2018-11-20T16:55:04.963Z,0
2018-11-20T16:55:37.014Z,0
2018-11-20T16:56:09.104Z,0
2018-11-20T16:56:41.174Z,0
2018-11-20T16:57:13.188Z,0
2018-11-20T16:57:45.255Z,0
2018-11-20T16:58:17.353Z,0
2018-11-20T16:58:49.432Z,0
2018-11-20T16:59:21.492Z,0
2018-11-20T16:59:53.579Z,0
2018-11-20T17:00:25.669Z,0
2018-11-20T17:00:57.715Z,0
2018-11-20T17:01:29.819Z,0
2018-11-20T17:02:01.897Z,0
2018-11-20T17:02:33.953Z,0
2018-11-20T17:03:06.002Z,0
2018-11-20T17:03:38.088Z,0
2018-11-20T17:04:10.138Z,0
2018-11-20T17:04:42.218Z,0
2018-11-20T17:05:14.275Z,0
2018-11-20T17:05:46.350Z,0
2018-11-20T17:06:18.408Z,0
2018-11-20T17:06:50.487Z,0
2018-11-20T17:07:22.546Z,0
2018-11-20T17:07:57.076Z,0
2018-11-20T17:08:29.119Z,0
2018-11-20T17:09:01.231Z,0
2018-11-20T17:09:33.291Z,0
2018-11-20T17:10:05.390Z,0
2018-11-20T17:10:37.517Z,0
2018-11-20T17:11:09.642Z,0
2018-11-20T17:11:41.722Z,0
2018-11-20T17:12:13.773Z,0
2018-11-20T17:12:45.831Z,0
2018-11-20T17:13:17.934Z,0
2018-11-20T17:13:50.001Z,0
2018-11-20T17:14:22.061Z,0
2018-11-20T17:14:54.121Z,0
2018-11-20T17:15:26.229Z,0
2018-11-20T17:15:58.316Z,0
2018-11-20T17:16:30.384Z,0
2018-11-20T17:17:02.458Z,0
2018-11-20T17:17:34.519Z,0
2018-11-20T17:18:06.595Z,0
2018-11-20T17:18:38.786Z,0
2018-11-20T17:19:10.731Z,0
2018-11-20T17:19:42.796Z,0
2018-11-20T17:20:14.831Z,0
2018-11-20T17:20:46.897Z,0
2018-11-20T17:21:18.995Z,0
2018-11-20T17:21:51.078Z,0
2018-11-20T17:22:23.153Z,0
2018-11-20T17:22:55.211Z,0
2018-11-20T17:23:27.296Z,0
2018-11-20T17:24:03.570Z,0
2018-11-20T17:24:31.476Z,0
2018-11-20T17:25:03.551Z,0
2018-11-20T17:25:35.637Z,0
2018-11-20T17:26:07.710Z,0
2018-11-20T17:26:39.774Z,0
2018-11-20T17:27:11.806Z,0
2018-11-20T17:27:43.864Z,0
2018-11-20T17:28:15.934Z,0
2018-11-20T17:28:48.011Z,0
2018-11-20T17:29:20.077Z,0
2018-11-20T17:29:52.166Z,0
2018-11-20T17:30:24.228Z,0
2018-11-20T17:30:56.274Z,0
2018-11-20T17:31:28.363Z,0
2018-11-20T17:32:00.407Z,0
2018-11-20T17:32:32.478Z,0
2018-11-20T17:33:04.517Z,0
2018-11-20T17:33:36.608Z,0
2018-11-20T17:34:08.689Z,0
2018-11-20T17:34:42.227Z,0
2018-11-20T17:35:12.870Z,0
2018-11-20T17:35:44.947Z,0
2018-11-20T17:36:17.013Z,0
2018-11-20T17:36:49.102Z,0
2018-11-20T17:37:21.176Z,0
2018-11-20T17:37:53.213Z,0
2018-11-20T17:38:25.284Z,0
2018-11-20T17:38:57.370Z,0
2018-11-20T17:39:29.428Z,0
2018-11-20T17:40:01.451Z,0
2018-11-20T17:40:33.511Z,0
2018-11-20T17:41:05.576Z,0
2018-11-20T17:41:37.639Z,0
2018-11-20T17:42:09.673Z,0
2018-11-20T17:42:41.740Z,0
2018-11-20T17:43:13.823Z,0
2018-11-20T17:43:45.880Z,0
2018-11-20T17:44:17.978Z,0
2018-11-20T17:44:54.757Z,0
2018-11-20T17:45:26.836Z,0
2018-11-20T17:45:58.901Z,0
2018-11-20T17:46:30.969Z,0
2018-11-20T17:47:03.051Z,0
2018-11-20T17:47:35.130Z,0
2018-11-20T17:48:07.198Z,0
2018-11-20T17:48:39.272Z,0
2018-11-20T17:49:11.353Z,0
2018-11-20T17:49:43.423Z,0
2018-11-20T17:50:15.508Z,0
2018-11-20T17:50:47.605Z,0
2018-11-20T17:51:19.689Z,0
2018-11-20T17:51:51.737Z,0
2018-11-20T17:52:23.827Z,0
2018-11-20T17:52:55.879Z,0
2018-11-20T17:53:27.939Z,0
2018-11-20T17:53:59.976Z,0
2018-11-20T17:54:32.041Z,0
2018-11-20T17:55:04.128Z,0
2018-11-20T17:55:36.202Z,0
2018-11-20T17:56:08.246Z,0
2018-11-20T17:56:40.290Z,0
2018-11-20T17:57:12.389Z,0
2018-11-20T17:57:44.438Z,0
2018-11-20T17:58:16.512Z,0
2018-11-20T17:58:48.597Z,0
2018-11-20T17:59:20.697Z,0
2018-11-20T17:59:52.768Z,0
2018-11-20T18:00:24.806Z,0
2018-11-20T18:00:57.021Z,0
2018-11-20T18:01:29.174Z,0
2018-11-20T18:02:01.233Z,0
2018-11-20T18:02:33.296Z,0
2018-11-20T18:03:05.352Z,0
2018-11-20T18:03:37.432Z,0
2018-11-20T18:04:09.512Z,0
2018-11-20T18:04:41.681Z,0
2018-11-20T18:05:13.672Z,0
2018-11-20T18:05:45.732Z,0
2018-11-20T18:06:17.833Z,0
2018-11-20T18:06:49.934Z,0
2018-11-20T18:07:22.014Z,0
2018-11-20T18:07:56.105Z,0
2018-11-20T18:08:26.235Z,0
2018-11-20T18:08:58.272Z,0
2018-11-20T18:09:30.333Z,0
2018-11-20T18:10:02.379Z,0
2018-11-20T18:10:34.441Z,0
2018-11-20T18:11:06.498Z,0
2018-11-20T18:11:38.598Z,0
2018-11-20T18:12:10.668Z,0
2018-11-20T18:12:42.792Z,0
2018-11-20T18:13:14.876Z,0
2018-11-20T18:13:46.919Z,0
2018-11-20T18:14:19.037Z,0
2018-11-20T18:14:51.150Z,0
2018-11-20T18:15:23.213Z,0
2018-11-20T18:15:55.309Z,0
2018-11-20T18:16:27.401Z,0
2018-11-20T18:16:59.485Z,0
2018-11-20T18:17:31.581Z,0
2018-11-20T18:18:03.624Z,0
2018-11-20T18:18:35.723Z,0
2018-11-20T18:19:07.799Z,0
2018-11-20T18:19:39.866Z,0
2018-11-20T18:20:11.926Z,0
2018-11-20T18:20:44.043Z,0
2018-11-20T18:21:16.115Z,0
2018-11-20T18:21:48.190Z,0
2018-11-20T18:22:20.316Z,0
2018-11-20T18:22:52.398Z,0
2018-11-20T18:23:24.478Z,0
2018-11-20T18:23:56.557Z,0
2018-11-20T18:24:28.615Z,0
2018-11-20T18:25:00.707Z,0
2018-11-20T18:25:32.809Z,0
2018-11-20T18:26:04.859Z,0
2018-11-20T18:26:36.929Z,0
2018-11-20T18:27:08.990Z,0
2018-11-20T18:27:41.050Z,0
2018-11-20T18:28:13.100Z,0
2018-11-20T18:28:45.150Z,0
2018-11-20T18:29:17.219Z,0
2018-11-20T18:29:49.271Z,0
2018-11-20T18:30:21.355Z,0
2018-11-20T18:30:53.465Z,0
2018-11-20T18:31:25.544Z,0
2018-11-20T18:31:57.565Z,0
2018-11-20T18:32:29.630Z,0
2018-11-20T18:33:01.710Z,0
2018-11-20T18:33:33.790Z,0
2018-11-20T18:34:05.859Z,0
2018-11-20T18:34:43.916Z,0
2018-11-20T18:35:16.003Z,0
2018-11-20T18:35:48.078Z,0
2018-11-20T18:36:20.144Z,0
2018-11-20T18:36:52.255Z,0
2018-11-20T18:37:24.341Z,0
2018-11-20T18:37:56.347Z,0
2018-11-20T18:38:28.397Z,0
2018-11-20T18:39:00.418Z,0
2018-11-20T18:39:32.511Z,0
2018-11-20T18:40:04.593Z,0
2018-11-20T18:40:36.675Z,0
2018-11-20T18:41:08.783Z,0
2018-11-20T18:41:40.848Z,0
2018-11-20T18:42:12.947Z,0
2018-11-20T18:42:44.999Z,0
2018-11-20T18:43:17.056Z,0
2018-11-20T18:43:49.134Z,0
2018-11-20T18:44:21.222Z,0
2018-11-20T18:44:53.271Z,0
2018-11-20T18:45:25.284Z,0
2018-11-20T18:45:57.846Z,0
2018-11-20T18:46:29.445Z,0
2018-11-20T18:47:01.516Z,0
2018-11-20T18:47:33.569Z,0
2018-11-20T18:48:05.647Z,0
2018-11-20T18:48:37.702Z,0
2018-11-20T18:49:09.785Z,0
2018-11-20T18:49:41.895Z,0
2018-11-20T18:50:13.991Z,0
2018-11-20T18:50:46.067Z,0
2018-11-20T18:51:18.150Z,0
2018-11-20T18:51:50.223Z,0
2018-11-20T18:52:22.262Z,0
2018-11-20T18:52:54.329Z,0